Saint Johns, Florida
Current Conditions -  °F | °C
As of 9:53 PM on Sunday 23 Nov 2014 (Local Time) from KNIP Reporting Station
Overcast Overcast  
Wind Chill: 73°   Ceiling: 18000
Heat Index: 73°   Visibility: 9mi
Dew Point: 70°   Wind: 0mph
Humidity: 90%   Direction: NA
Pressure: 29.91"   Gusts: NA
Location:  30.0735°N, 81.5808°W
Report Text: KNIP 240253Z 00000KT 9SM OVC180 23/21 A2991 RMK AO2 SLP123 T02280211 53008 $
Loading
Personal Weather Stations






























Interactive Weather Map New forecast layout! Learn more

10-Day Weather Forecast

Advertisements
Track Severe Weather on mobile